Time;durP1;ratioP1;P1;durP2;ratioP2;P2;SDS_P1;SDS_P2;PMS_P1;PMS_P2;Temp;Humidity;BMP_temperature;BMP_pressure;BME280_temperature;BME280_humidity;BME280_pressure;Samples;Min_cycle;Max_cycle;Signal;HPM_P1;HPM_P2
2021/10/16 00:00:51;;;;;;;1999.90;999.90;;;9.30;99.90;;;;;;5074600;28;20173;-66
2021/10/16 00:03:16;;;;;;;1999.90;999.90;;;9.10;99.90;;;;;;5075206;28;20187;-65
2021/10/16 00:05:44;;;;;;;1999.90;999.90;;;9.00;99.90;;;;;;5075545;28;20191;-65
2021/10/16 00:08:09;;;;;;;1999.90;999.90;;;8.90;99.90;;;;;;5075687;28;20192;-65
2021/10/16 00:10:35;;;;;;;1999.90;999.90;;;8.90;99.90;;;;;;5075636;28;20537;-66
2021/10/16 00:13:01;;;;;;;1999.90;999.90;;;8.80;99.90;;;;;;5075796;28;20532;-66
2021/10/16 00:15:27;;;;;;;1999.90;999.90;;;8.70;99.90;;;;;;5075532;28;20484;-66
2021/10/16 00:17:53;;;;;;;1999.90;999.90;;;8.60;99.90;;;;;;5076116;28;20425;-66
2021/10/16 00:20:19;;;;;;;1999.90;999.90;;;8.70;99.90;;;;;;5075434;28;20402;-66
2021/10/16 00:22:45;;;;;;;1999.90;999.90;;;8.70;99.90;;;;;;5075551;28;20632;-65
2021/10/16 00:25:10;;;;;;;1999.90;999.90;;;8.60;99.90;;;;;;5075344;28;20255;-66
2021/10/16 00:27:36;;;;;;;1999.90;999.90;;;8.60;99.90;;;;;;5075952;28;20495;-65
2021/10/16 00:30:02;;;;;;;1999.90;999.90;;;8.50;99.90;;;;;;5075893;28;20229;-66
2021/10/16 00:32:27;;;;;;;1999.90;999.90;;;8.40;99.90;;;;;;5076047;28;20251;-66
2021/10/16 00:34:53;;;;;;;1999.90;999.90;;;8.40;99.90;;;;;;5076211;28;20433;-65
2021/10/16 00:37:18;;;;;;;1999.90;999.90;;;8.30;99.90;;;;;;5076465;28;20185;-66
2021/10/16 00:39:44;;;;;;;1999.90;999.90;;;8.30;99.90;;;;;;5076455;28;20175;-66
2021/10/16 00:42:10;;;;;;;1999.90;999.90;;;8.30;99.90;;;;;;5075823;28;20533;-66
2021/10/16 00:44:36;;;;;;;1999.90;999.90;;;8.20;99.90;;;;;;5075595;28;20182;-66
2021/10/16 00:47:03;;;;;;;1999.90;999.90;;;8.20;99.90;;;;;;5075653;28;20275;-66
2021/10/16 00:49:29;;;;;;;1999.90;999.90;;;8.10;99.90;;;;;;5075563;28;20514;-66
2021/10/16 00:51:55;;;;;;;1999.90;999.90;;;8.10;99.90;;;;;;5075139;28;20813;-65
2021/10/16 00:54:22;;;;;;;1999.90;999.90;;;8.00;99.90;;;;;;5074364;28;20438;-65
2021/10/16 00:56:50;;;;;;;1999.90;999.90;;;8.00;99.90;;;;;;5075113;28;20428;-66
2021/10/16 00:59:18;;;;;;;1999.90;999.90;;;7.90;99.90;;;;;;5075175;28;20767;-66
2021/10/16 01:01:44;;;;;;;1999.90;999.90;;;7.80;99.90;;;;;;5075219;28;20410;-66
2021/10/16 01:04:10;;;;;;;1999.90;999.90;;;7.80;99.90;;;;;;5074982;28;20472;-66
2021/10/16 01:06:37;;;;;;;1999.90;999.90;;;7.80;99.90;;;;;;5074444;28;20164;-66
2021/10/16 01:09:08;;;;;;;1999.90;999.90;;;7.80;99.90;;;;;;5074423;28;20263;-66
2021/10/16 01:11:52;;;;;;;1999.90;999.90;;;7.70;99.90;;;;;;5075034;28;20401;-66
2021/10/16 01:14:19;;;;;;;1999.90;999.90;;;7.80;99.90;;;;;;5075270;28;20416;-66
2021/10/16 01:16:49;;;;;;;1999.90;999.90;;;7.70;99.90;;;;;;5074971;28;20429;-66
2021/10/16 01:19:16;;;;;;;1999.90;999.90;;;7.80;99.90;;;;;;5074973;28;20428;-66
2021/10/16 01:21:47;;;;;;;1999.90;999.90;;;7.70;99.90;;;;;;5074649;28;20442;-66
2021/10/16 01:24:15;;;;;;;1999.90;999.90;;;7.70;99.90;;;;;;5075009;28;20466;-65
2021/10/16 01:26:42;;;;;;;1999.90;999.90;;;7.70;99.90;;;;;;5074807;28;20446;-66
2021/10/16 01:29:10;;;;;;;1999.90;999.90;;;7.70;99.90;;;;;;5075046;28;20405;-66
2021/10/16 01:31:37;;;;;;;1999.90;999.90;;;7.60;99.90;;;;;;5074925;28;20410;-66
2021/10/16 01:34:04;;;;;;;1999.90;999.90;;;7.60;99.90;;;;;;5074665;28;20814;-66
2021/10/16 01:36:44;;;;;;;1999.90;999.90;;;7.60;99.90;;;;;;5074675;28;20466;-66
2021/10/16 01:39:09;;;;;;;1999.90;999.90;;;7.50;99.90;;;;;;5075137;28;20398;-66
2021/10/16 01:41:36;;;;;;;1999.90;999.90;;;7.50;99.90;;;;;;5074281;28;20397;-66
2021/10/16 01:44:06;;;;;;;1999.90;999.90;;;7.50;99.90;;;;;;5074424;28;20409;-66
2021/10/16 01:46:33;;;;;;;1999.90;999.90;;;7.50;99.90;;;;;;5074755;28;20952;-65
2021/10/16 01:48:59;;;;;;;1999.90;999.90;;;7.50;99.90;;;;;;5074572;28;20412;-66
2021/10/16 01:51:24;;;;;;;1999.90;999.90;;;7.50;99.90;;;;;;5074423;28;20405;-66
2021/10/16 01:53:50;;;;;;;1999.90;999.90;;;7.50;99.90;;;;;;5074505;28;20417;-65
2021/10/16 01:56:16;;;;;;;1999.90;999.90;;;7.40;99.90;;;;;;5074455;28;20172;-66
2021/10/16 01:58:41;;;;;;;1999.90;999.90;;;7.50;99.90;;;;;;5074803;28;20198;-66
2021/10/16 02:01:07;;;;;;;1999.90;999.90;;;7.50;99.90;;;;;;5074724;28;20172;-66
2021/10/16 02:03:33;;;;;;;1999.90;999.90;;;7.50;99.90;;;;;;5074673;28;20174;-66
2021/10/16 02:05:58;;;;;;;1999.90;999.90;;;7.50;99.90;;;;;;5074548;28;20258;-66
2021/10/16 02:08:24;;;;;;;1999.90;999.90;;;7.40;99.90;;;;;;5074729;28;20695;-65
2021/10/16 02:10:49;;;;;;;1999.90;999.90;;;7.30;99.90;;;;;;5074728;28;20203;-66
2021/10/16 02:13:15;;;;;;;1999.90;999.90;;;7.10;99.90;;;;;;5071841;28;20257;-66
2021/10/16 02:15:40;;;;;;;1999.90;999.90;;;7.10;99.90;;;;;;5071870;28;20174;-66
2021/10/16 02:18:06;;;;;;;1999.90;999.90;;;7.10;99.90;;;;;;5071862;28;20218;-66
2021/10/16 02:20:32;;;;;;;1999.90;999.90;;;7.10;99.90;;;;;;5071770;28;20166;-66
2021/10/16 02:22:57;;;;;;;1999.90;999.90;;;7.10;99.90;;;;;;5071667;28;20542;-65
2021/10/16 02:25:23;;;;;;;1999.90;999.90;;;7.10;99.90;;;;;;5071762;28;20171;-65
2021/10/16 02:27:48;;;;;;;1999.90;999.90;;;7.00;99.90;;;;;;5071717;28;20199;-66
2021/10/16 02:30:14;;;;;;;1999.90;999.90;;;6.80;99.90;;;;;;5071448;28;20641;-66
2021/10/16 02:32:40;;;;;;;1999.90;999.90;;;6.80;99.90;;;;;;5071238;28;20163;-65
2021/10/16 02:35:06;;;;;;;1999.90;999.90;;;6.90;99.90;;;;;;5071409;28;20171;-65
2021/10/16 02:37:31;;;;;;;1999.90;999.90;;;6.90;99.90;;;;;;5071505;28;20448;-66
2021/10/16 02:39:57;;;;;;;1999.90;999.90;;;7.00;99.90;;;;;;5071645;28;20406;-65
2021/10/16 02:42:23;;;;;;;1999.90;999.90;;;6.90;99.90;;;;;;5071485;28;20254;-66
2021/10/16 02:44:49;;;;;;;1999.90;999.90;;;6.90;99.90;;;;;;5071674;28;20167;-65
2021/10/16 02:47:15;;;;;;;1999.90;999.90;;;6.90;99.90;;;;;;5071549;28;20545;-66
2021/10/16 02:49:41;;;;;;;1999.90;999.90;;;6.90;99.90;;;;;;5071382;28;20535;-65
2021/10/16 02:52:07;;;;;;;1999.90;999.90;;;6.90;99.90;;;;;;5071469;28;20488;-65
2021/10/16 02:54:32;;;;;;;1999.90;999.90;;;6.90;99.90;;;;;;5071764;28;20405;-66
2021/10/16 02:56:58;;;;;;;1999.90;999.90;;;6.80;99.90;;;;;;5071469;28;20433;-65
2021/10/16 02:59:24;;;;;;;1999.90;999.90;;;6.70;99.90;;;;;;5071401;28;20197;-66
2021/10/16 03:01:49;;;;;;;1999.90;999.90;;;6.70;99.90;;;;;;5071371;28;20178;-66
2021/10/16 03:04:15;;;;;;;1999.90;999.90;;;6.70;99.90;;;;;;5071247;28;20515;-65
2021/10/16 03:06:40;;;;;;;1999.90;999.90;;;6.70;99.90;;;;;;5071370;28;20167;-65
2021/10/16 03:09:06;;;;;;;1999.90;999.90;;;6.70;99.90;;;;;;5071387;28;20210;-65
2021/10/16 03:11:32;;;;;;;1999.90;999.90;;;6.60;99.90;;;;;;5070918;28;20155;-66
2021/10/16 03:14:00;;;;;;;1999.90;999.90;;;6.60;99.90;;;;;;5071240;28;20202;-66
2021/10/16 03:16:25;;;;;;;1999.90;999.90;;;6.50;99.90;;;;;;5071173;28;20160;-66
2021/10/16 03:18:52;;;;;;;1999.90;999.90;;;6.50;99.90;;;;;;5074614;28;20936;-65
2021/10/16 03:21:21;;;;;;;1999.90;999.90;;;6.50;99.90;;;;;;5074640;28;20607;-66
2021/10/16 03:23:47;;;;;;;1999.90;999.90;;;6.50;99.90;;;;;;5074681;28;20423;-65
2021/10/16 03:26:12;;;;;;;1999.90;999.90;;;6.50;99.90;;;;;;5074724;28;20405;-65
2021/10/16 03:28:38;;;;;;;1999.90;999.90;;;6.50;99.90;;;;;;5074667;28;20294;-66
2021/10/16 03:31:04;;;;;;;1999.90;999.90;;;6.50;99.90;;;;;;5074742;28;20281;-66
2021/10/16 03:33:29;;;;;;;1999.90;999.90;;;6.40;99.90;;;;;;5074399;28;20171;-65
2021/10/16 03:35:55;;;;;;;1999.90;999.90;;;6.30;99.90;;;;;;5074707;28;20482;-65
2021/10/16 03:38:21;;;;;;;1999.90;999.90;;;6.30;99.90;;;;;;5074504;28;20190;-65
2021/10/16 03:40:50;;;;;;;1999.90;999.90;;;6.30;99.90;;;;;;5074971;28;20171;-66
2021/10/16 03:43:15;;;;;;;1999.90;999.90;;;6.30;99.90;;;;;;5075388;28;20535;-66
2021/10/16 03:45:41;;;;;;;1999.90;999.90;;;6.20;99.90;;;;;;5077324;28;20443;-65
2021/10/16 03:48:06;;;;;;;1999.90;999.90;;;6.20;99.90;;;;;;5075782;28;20241;-66
2021/10/16 03:50:34;;;;;;;1999.90;999.90;;;6.20;99.90;;;;;;5075479;28;20195;-66
2021/10/16 03:53:00;;;;;;;1999.90;999.90;;;6.20;99.90;;;;;;5075436;28;20648;-66
2021/10/16 03:55:26;;;;;;;1999.90;999.90;;;6.20;99.90;;;;;;5075486;28;20397;-66
2021/10/16 03:57:52;;;;;;;1999.90;999.90;;;6.20;99.90;;;;;;5075401;28;20424;-66
2021/10/16 04:00:20;;;;;;;1999.90;999.90;;;6.20;99.90;;;;;;5075644;28;20249;-66
2021/10/16 04:02:49;;;;;;;1999.90;999.90;;;6.10;99.90;;;;;;5075028;28;20397;-66
2021/10/16 04:05:15;;;;;;;1999.90;999.90;;;6.10;99.90;;;;;;5075693;28;20923;-66
2021/10/16 04:07:41;;;;;;;1999.90;999.90;;;6.00;99.90;;;;;;5075840;28;20459;-66
2021/10/16 04:10:07;;;;;;;1999.90;999.90;;;6.00;99.90;;;;;;5075219;28;20206;-66
2021/10/16 04:12:33;;;;;;;1999.90;999.90;;;5.90;99.90;;;;;;5075567;28;20266;-66
2021/10/16 04:14:59;;;;;;;1999.90;999.90;;;5.90;99.90;;;;;;5076042;28;20425;-66
2021/10/16 04:17:24;;;;;;;1999.90;999.90;;;5.80;99.90;;;;;;5075941;28;20191;-66
2021/10/16 04:19:50;;;;;;;1999.90;999.90;;;5.90;99.90;;;;;;5075858;28;20171;-65
2021/10/16 04:22:15;;;;;;;1999.90;999.90;;;5.90;99.90;;;;;;5074888;28;20171;-66
2021/10/16 04:24:41;;;;;;;1999.90;999.90;;;5.90;99.90;;;;;;5075245;28;20167;-66
2021/10/16 04:27:06;;;;;;;1999.90;999.90;;;5.90;99.90;;;;;;5075200;28;20201;-66
2021/10/16 04:29:32;;;;;;;1999.90;999.90;;;5.90;99.90;;;;;;5074774;28;20531;-66
2021/10/16 04:31:58;;;;;;;1999.90;999.90;;;6.00;99.90;;;;;;5074818;28;20167;-66
2021/10/16 04:34:23;;;;;;;1999.90;999.90;;;6.00;99.90;;;;;;5075102;28;20173;-66
2021/10/16 04:36:49;;;;;;;1999.90;999.90;;;5.90;99.90;;;;;;5075262;28;20190;-66
2021/10/16 04:39:14;;;;;;;1999.90;999.90;;;6.00;99.90;;;;;;5074773;28;20195;-66
2021/10/16 04:41:40;;;;;;;1999.90;999.90;;;6.00;99.90;;;;;;5074922;28;20178;-66
2021/10/16 04:44:06;;;;;;;1999.90;999.90;;;6.00;99.90;;;;;;5075207;28;20167;-65
2021/10/16 04:46:32;;;;;;;1999.90;999.90;;;6.00;99.90;;;;;;5075104;28;20401;-66
2021/10/16 04:48:58;;;;;;;1999.90;999.90;;;6.00;99.90;;;;;;5074241;28;21063;-66
2021/10/16 04:51:24;;;;;;;1999.90;999.90;;;5.90;99.90;;;;;;5074478;28;20324;-66
2021/10/16 04:53:49;;;;;;;1999.90;999.90;;;5.90;99.90;;;;;;5074634;28;20624;-66
2021/10/16 04:56:15;;;;;;;1999.90;999.90;;;5.90;99.90;;;;;;5074787;28;20417;-65
2021/10/16 04:58:40;;;;;;;1999.90;999.90;;;5.90;99.90;;;;;;5074866;28;20201;-66
2021/10/16 05:01:06;;;;;;;1999.90;999.90;;;5.90;99.90;;;;;;5074663;28;20174;-66
2021/10/16 05:03:31;;;;;;;1999.90;999.90;;;5.80;99.90;;;;;;5074387;28;20190;-66
2021/10/16 05:05:57;;;;;;;1999.90;999.90;;;5.60;99.90;;;;;;5074711;28;20175;-65
2021/10/16 05:08:23;;;;;;;1999.90;999.90;;;5.60;99.90;;;;;;5074306;28;20252;-65
2021/10/16 05:10:49;;;;;;;1999.90;999.90;;;5.60;99.90;;;;;;5074226;28;20761;-66
2021/10/16 05:13:14;;;;;;;1999.90;999.90;;;5.60;99.90;;;;;;5074095;28;20167;-66
2021/10/16 05:15:40;;;;;;;1999.90;999.90;;;5.50;99.90;;;;;;5074144;28;20782;-66
2021/10/16 05:18:05;;;;;;;1999.90;999.90;;;5.50;99.90;;;;;;5074238;28;20240;-66
2021/10/16 05:20:31;;;;;;;1999.90;999.90;;;5.50;99.90;;;;;;5074436;28;20572;-66
2021/10/16 05:22:56;;;;;;;1999.90;999.90;;;5.40;99.90;;;;;;5074298;28;20175;-65
2021/10/16 05:25:22;;;;;;;1999.90;999.90;;;5.30;99.90;;;;;;5075396;28;20177;-66
2021/10/16 05:27:51;;;;;;;1999.90;999.90;;;5.30;99.90;;;;;;5074564;28;20198;-66
2021/10/16 05:30:17;;;;;;;1999.90;999.90;;;5.30;99.90;;;;;;5074626;28;20198;-66
2021/10/16 05:32:44;;;;;;;1999.90;999.90;;;5.30;99.90;;;;;;5074735;28;20915;-66
2021/10/16 05:35:10;;;;;;;1999.90;999.90;;;5.30;99.90;;;;;;5074695;28;20735;-65
2021/10/16 05:37:35;;;;;;;1999.90;999.90;;;5.30;99.90;;;;;;5074962;28;20436;-65
2021/10/16 05:40:02;;;;;;;1999.90;999.90;;;5.30;99.90;;;;;;5074508;28;20496;-65
2021/10/16 05:42:27;;;;;;;1999.90;999.90;;;5.30;99.90;;;;;;5074369;28;20527;-65
2021/10/16 05:44:54;;;;;;;1999.90;999.90;;;5.30;99.90;;;;;;5075394;28;20423;-66
2021/10/16 05:47:20;;;;;;;1999.90;999.90;;;5.30;99.90;;;;;;5075152;28;20203;-65
2021/10/16 05:49:45;;;;;;;1999.90;999.90;;;5.30;99.90;;;;;;5074968;28;20440;-66
2021/10/16 05:52:11;;;;;;;1999.90;999.90;;;5.30;99.90;;;;;;5074883;28;20163;-66
2021/10/16 05:54:37;;;;;;;1999.90;999.90;;;5.30;99.90;;;;;;5075668;28;20175;-66
2021/10/16 05:57:02;;;;;;;1999.90;999.90;;;5.30;99.90;;;;;;5074991;28;20183;-66
2021/10/16 05:59:28;;;;;;;1999.90;999.90;;;5.30;99.90;;;;;;5074814;28;20505;-65
2021/10/16 06:01:53;;;;;;;1999.90;999.90;;;5.30;99.90;;;;;;5074174;28;20167;-66
2021/10/16 06:04:19;;;;;;;1999.90;999.90;;;5.20;99.90;;;;;;5074630;28;20163;-66
2021/10/16 06:06:45;;;;;;;1999.90;999.90;;;5.20;99.90;;;;;;5074745;28;20187;-66
2021/10/16 06:09:10;;;;;;;1999.90;999.90;;;5.20;99.90;;;;;;5074760;28;20191;-65
2021/10/16 06:11:36;;;;;;;1999.90;999.90;;;5.20;99.90;;;;;;5074398;28;20258;-66
2021/10/16 06:14:01;;;;;;;1999.90;999.90;;;5.20;99.90;;;;;;5074376;28;20213;-66
2021/10/16 06:16:27;;;;;;;1999.90;999.90;;;5.20;99.90;;;;;;5073748;28;20640;-66
2021/10/16 06:18:53;;;;;;;1999.90;999.90;;;5.30;99.90;;;;;;5074337;28;20648;-66
2021/10/16 06:21:18;;;;;;;1999.90;999.90;;;5.30;99.90;;;;;;5074548;28;20178;-66
2021/10/16 06:23:44;;;;;;;1999.90;999.90;;;5.30;99.90;;;;;;5074634;28;20182;-66
2021/10/16 06:26:09;;;;;;;1999.90;999.90;;;5.30;99.90;;;;;;5074297;28;20536;-66
2021/10/16 06:28:35;;;;;;;1999.90;999.90;;;5.30;99.90;;;;;;5074015;28;20201;-66
2021/10/16 06:31:01;;;;;;;1999.90;999.90;;;5.40;99.90;;;;;;5074555;28;20206;-66
2021/10/16 06:33:27;;;;;;;1999.90;999.90;;;5.40;99.90;;;;;;5074691;28;20261;-66
2021/10/16 06:35:53;;;;;;;1999.90;999.90;;;5.30;99.90;;;;;;5075961;28;20423;-66
2021/10/16 06:38:19;;;;;;;1999.90;999.90;;;5.20;99.90;;;;;;5080676;28;20187;-66
2021/10/16 06:40:45;;;;;;;1999.90;999.90;;;5.20;99.90;;;;;;5081091;28;21103;-66
2021/10/16 06:43:11;;;;;;;1999.90;999.90;;;5.10;99.90;;;;;;5080951;28;20492;-66
2021/10/16 06:45:37;;;;;;;1999.90;999.90;;;5.10;99.90;;;;;;5080899;28;20470;-66
2021/10/16 06:48:03;;;;;;;1999.90;999.90;;;5.10;99.90;;;;;;5080804;28;20191;-66
2021/10/16 06:50:28;;;;;;;1999.90;999.90;;;5.20;99.90;;;;;;5082344;28;20605;-66
2021/10/16 06:52:54;;;;;;;1999.90;999.90;;;5.30;99.90;;;;;;5083437;28;20786;-66
2021/10/16 06:55:19;;;;;;;1999.90;999.90;;;5.30;99.90;;;;;;5084123;28;20167;-66
2021/10/16 06:57:45;;;;;;;1999.90;999.90;;;5.50;99.90;;;;;;5086305;28;20190;-66
2021/10/16 07:00:11;;;;;;;1999.90;999.90;;;5.50;99.90;;;;;;5085987;28;20242;-66
2021/10/16 07:02:37;;;;;;;1999.90;999.90;;;5.60;99.90;;;;;;5084495;28;20411;-66
2021/10/16 07:05:03;;;;;;;1999.90;999.90;;;5.70;99.90;;;;;;5084585;28;20178;-66
2021/10/16 07:07:29;;;;;;;1999.90;999.90;;;5.80;99.90;;;;;;5084434;28;20665;-66
2021/10/16 07:09:54;;;;;;;1999.90;999.90;;;5.90;99.90;;;;;;5084341;28;20467;-66
2021/10/16 07:12:22;;;;;;;1999.90;999.90;;;6.00;99.90;;;;;;5081048;28;20176;-66
2021/10/16 07:14:47;;;;;;;1999.90;999.90;;;6.10;99.90;;;;;;5078480;28;20183;-66
2021/10/16 07:17:13;;;;;;;1999.90;999.90;;;6.20;99.90;;;;;;5078532;28;20448;-65
2021/10/16 07:19:39;;;;;;;1999.90;999.90;;;6.30;99.90;;;;;;5078686;28;20254;-66
2021/10/16 07:22:05;;;;;;;1999.90;999.90;;;6.40;99.90;;;;;;5078311;28;20163;-66
2021/10/16 07:24:31;;;;;;;1999.90;999.90;;;6.40;99.90;;;;;;5079015;28;20416;-66
2021/10/16 07:26:57;;;;;;;1999.90;999.90;;;6.50;99.90;;;;;;5074506;28;20805;-66
2021/10/16 07:29:22;;;;;;;1999.90;999.90;;;6.60;99.90;;;;;;5058104;28;20230;-66
2021/10/16 07:31:53;;;;;;;1999.90;999.90;;;6.60;99.90;;;;;;5058137;28;20202;-66
2021/10/16 07:34:19;;;;;;;1999.90;999.90;;;6.70;99.90;;;;;;5057909;28;20402;-66
2021/10/16 07:36:46;;;;;;;1999.90;999.90;;;6.80;99.90;;;;;;5058008;28;20457;-66
2021/10/16 07:39:12;;;;;;;1999.90;999.90;;;6.80;99.90;;;;;;5057233;28;20829;-66
2021/10/16 07:41:39;;;;;;;1999.90;999.90;;;6.90;99.90;;;;;;5056754;28;20426;-66
2021/10/16 07:44:06;;;;;;;1999.90;999.90;;;7.00;99.90;;;;;;5056846;28;20592;-64
2021/10/16 07:46:32;;;;;;;1999.90;999.90;;;7.00;99.90;;;;;;5056627;28;20485;-66
2021/10/16 07:48:58;;;;;;;1999.90;999.90;;;7.00;99.90;;;;;;5056939;28;20411;-65
2021/10/16 07:51:23;;;;;;;1999.90;999.90;;;7.10;99.90;;;;;;5056812;28;20462;-66
2021/10/16 07:53:49;;;;;;;1999.90;999.90;;;7.10;99.90;;;;;;5056360;28;20190;-66
2021/10/16 07:56:14;;;;;;;1999.90;999.90;;;7.30;99.90;;;;;;5056485;28;20172;-66
2021/10/16 07:58:41;;;;;;;1999.90;999.90;;;7.30;99.90;;;;;;5056296;28;20215;-65
2021/10/16 08:01:07;;;;;;;1999.90;999.90;;;7.40;99.90;;;;;;5056545;28;20775;-66
2021/10/16 08:03:33;;;;;;;1999.90;999.90;;;7.50;99.90;;;;;;5055859;28;21101;-66
2021/10/16 08:05:59;;;;;;;1999.90;999.90;;;7.60;99.90;;;;;;5055805;28;20407;-66
2021/10/16 08:08:25;;;;;;;1999.90;999.90;;;7.60;99.90;;;;;;5055696;28;20184;-66
2021/10/16 08:10:50;;;;;;;1999.90;999.90;;;7.80;99.90;;;;;;5056301;28;20465;-66
2021/10/16 08:13:16;;;;;;;1999.90;999.90;;;7.80;99.90;;;;;;5055797;28;20199;-66
2021/10/16 08:15:41;;;;;;;1999.90;999.90;;;7.80;99.90;;;;;;5055465;28;20225;-66
2021/10/16 08:18:07;;;;;;;1999.90;999.90;;;7.90;99.90;;;;;;5055631;28;20180;-66
2021/10/16 08:20:33;;;;;;;1999.90;999.90;;;7.90;99.90;;;;;;5053251;28;20689;-65
2021/10/16 08:22:58;;;;;;;1999.90;999.90;;;8.00;99.90;;;;;;5055114;28;20203;-66
2021/10/16 08:25:24;;;;;;;1999.90;999.90;;;8.10;99.90;;;;;;5056147;28;20201;-66
2021/10/16 08:27:50;;;;;;;1999.90;999.90;;;8.20;99.90;;;;;;5055236;28;20192;-66
2021/10/16 08:30:17;;;;;;;1999.90;999.90;;;8.20;99.90;;;;;;5054951;28;20196;-65
2021/10/16 08:32:43;;;;;;;1999.90;999.90;;;8.30;99.90;;;;;;5054981;28;20658;-66
2021/10/16 08:35:11;;;;;;;1999.90;999.90;;;8.40;99.90;;;;;;5055832;28;20411;-66
2021/10/16 08:37:37;;;;;;;1999.90;999.90;;;8.50;99.90;;;;;;5055160;28;20453;-66
2021/10/16 08:40:04;;;;;;;1999.90;999.90;;;8.60;99.90;;;;;;5056266;28;20771;-65
2021/10/16 08:42:32;;;;;;;1999.90;999.90;;;8.70;99.90;;;;;;5055389;28;20176;-66
2021/10/16 08:44:59;;;;;;;1999.90;999.90;;;8.70;99.90;;;;;;5055712;28;20408;-66
2021/10/16 08:47:31;;;;;;;1999.90;999.90;;;8.80;99.90;;;;;;5056026;28;20494;-66
2021/10/16 08:49:59;;;;;;;1999.90;999.90;;;9.00;99.90;;;;;;5055433;28;20550;-66
2021/10/16 08:52:26;;;;;;;1999.90;999.90;;;9.00;99.90;;;;;;5037380;28;20805;-65
2021/10/16 08:54:51;;;;;;;1999.90;999.90;;;9.10;99.90;;;;;;5054577;28;20414;-66
2021/10/16 08:57:17;;;;;;;1999.90;999.90;;;9.20;99.90;;;;;;5054457;28;20433;-66
2021/10/16 08:59:43;;;;;;;1999.90;999.90;;;9.20;99.90;;;;;;5058108;28;20646;-66
2021/10/16 09:02:09;;;;;;;1999.90;999.90;;;9.30;99.90;;;;;;5054422;28;20449;-66
2021/10/16 09:04:36;;;;;;;1999.90;999.90;;;9.40;99.90;;;;;;5054774;28;20213;-66
2021/10/16 09:07:19;;;;;;;1999.90;999.90;;;9.40;99.90;;;;;;5052933;28;20457;-66
2021/10/16 09:09:45;;;;;;;1999.90;999.90;;;9.60;99.90;;;;;;5052332;28;20883;-66
2021/10/16 09:12:14;;;;;;;1999.90;999.90;;;9.60;99.90;;;;;;5052098;28;20509;-66
2021/10/16 09:14:50;;;;;;;1999.90;999.90;;;9.70;99.90;;;;;;5051758;28;20936;-66
2021/10/16 09:17:17;;;;;;;1999.90;999.90;;;9.90;99.90;;;;;;5052326;28;21013;-66
2021/10/16 09:19:44;;;;;;;1999.90;999.90;;;10.00;99.90;;;;;;5051923;28;20458;-66
2021/10/16 09:22:13;;;;;;;1999.90;999.90;;;10.10;99.90;;;;;;5052142;28;20459;-66
2021/10/16 09:24:44;;;;;;;1999.90;999.90;;;10.20;99.90;;;;;;5052179;28;20408;-66
2021/10/16 09:27:22;;;;;;;1999.90;999.90;;;10.40;99.90;;;;;;5051893;28;20910;-66
2021/10/16 09:30:00;;;;;;;1999.90;999.90;;;10.50;99.90;;;;;;5051889;28;20958;-66
2021/10/16 09:32:25;;;;;;;1999.90;999.90;;;10.60;99.90;;;;;;5051965;28;20400;-66
2021/10/16 09:35:12;;;;;;;1999.90;999.90;;;10.80;99.90;;;;;;5051920;28;20427;-66
2021/10/16 09:37:51;;;;;;;1999.90;999.90;;;10.90;99.90;;;;;;5052085;28;20199;-66
2021/10/16 09:40:40;;;;;;;1999.90;999.90;;;11.00;99.90;;;;;;5051468;28;20413;-66
2021/10/16 09:43:19;;;;;;;1999.90;999.90;;;11.10;99.90;;;;;;5067373;23;20490;-68
2021/10/16 09:45:46;;;;;;;1999.90;999.90;;;11.20;99.90;;;;;;5012460;28;20407;-68
2021/10/16 09:48:13;;;;;;;1999.90;999.90;;;11.30;99.90;;;;;;5012316;28;20469;-68
2021/10/16 09:50:59;;;;;;;1999.90;999.90;;;11.40;99.90;;;;;;5012093;28;20494;-68
2021/10/16 09:53:25;;;;;;;1999.90;999.90;;;11.50;99.90;;;;;;5012526;28;20457;-68
2021/10/16 09:55:51;;;;;;;1999.90;999.90;;;11.70;99.90;;;;;;5012036;28;20432;-68
2021/10/16 09:58:19;;;;;;;1999.90;999.90;;;11.80;99.90;;;;;;5012638;28;20179;-68
2021/10/16 10:00:44;;;;;;;1999.90;999.90;;;11.80;99.90;;;;;;5012481;28;20855;-68
2021/10/16 10:03:12;;;;;;;1999.90;999.90;;;11.90;99.90;;;;;;5011507;28;20474;-68
2021/10/16 10:05:41;;;;;;;1999.90;999.90;;;12.00;99.90;;;;;;5012035;28;20419;-69
2021/10/16 10:08:06;;;;;;;1999.90;999.90;;;12.00;99.90;;;;;;5012381;28;20416;-68
2021/10/16 10:10:32;;;;;;;1999.90;999.90;;;12.20;99.90;;;;;;5011628;28;20540;-68
2021/10/16 10:12:58;;;;;;;1999.90;999.90;;;12.30;99.90;;;;;;5011761;28;20466;-68
2021/10/16 10:15:24;;;;;;;1999.90;999.90;;;12.50;99.90;;;;;;5012316;28;20411;-68
2021/10/16 10:17:50;;;;;;;1999.90;999.90;;;12.50;99.90;;;;;;5011811;28;20758;-69
2021/10/16 10:20:17;;;;;;;1999.90;999.90;;;12.60;99.90;;;;;;5011869;28;20408;-68
2021/10/16 10:22:44;;;;;;;1999.90;999.90;;;12.70;99.90;;;;;;5012794;28;20443;-69
2021/10/16 10:25:25;;;;;;;1999.90;999.90;;;12.80;99.90;;;;;;5012151;28;20430;-70
2021/10/16 10:27:53;;;;;;;1999.90;999.90;;;13.10;99.90;;;;;;5014944;28;20421;-69
2021/10/16 10:30:34;;;;;;;1999.90;999.90;;;13.20;99.90;;;;;;5014567;28;20493;-69
2021/10/16 10:33:15;;;;;;;1999.90;999.90;;;13.40;99.90;;;;;;5014682;28;20450;-69
2021/10/16 10:35:46;;;;;;;1999.90;999.90;;;13.50;99.90;;;;;;5014968;28;20406;-69
2021/10/16 10:38:32;;;;;;;1999.90;999.90;;;13.70;99.90;;;;;;5014709;28;20463;-70
2021/10/16 10:40:58;;;;;;;1999.90;999.90;;;13.90;99.90;;;;;;5014575;28;20470;-69
2021/10/16 10:43:54;;;;;;;1999.90;999.90;;;14.00;99.90;;;;;;5014302;28;20842;-70
2021/10/16 10:46:24;;;;;;;1999.90;999.90;;;14.30;99.90;;;;;;5015333;28;20185;-68
2021/10/16 10:48:49;;;;;;;1999.90;999.90;;;14.40;99.90;;;;;;5015657;28;20850;-68
2021/10/16 10:51:36;;;;;;;1999.90;999.90;;;14.50;99.90;;;;;;5015103;28;20536;-69
2021/10/16 10:54:17;;;;;;;1999.90;999.90;;;14.60;99.90;;;;;;5016327;28;20188;-68
2021/10/16 10:56:46;;;;;;;1999.90;999.90;;;14.70;99.90;;;;;;5015976;28;20425;-69
2021/10/16 10:59:15;;;;;;;1999.90;999.90;;;14.80;99.90;;;;;;5015501;28;20466;-68
2021/10/16 11:01:58;;;;;;;1999.90;999.90;;;15.00;99.90;;;;;;5015029;28;20411;-69
2021/10/16 11:04:48;;;;;;;1999.90;999.90;;;15.20;99.90;;;;;;5016108;28;20400;-69
2021/10/16 11:07:16;;;;;;;1999.90;999.90;;;15.40;99.90;;;;;;5015252;28;20414;-68
2021/10/16 11:09:43;;;;;;;1999.90;999.90;;;15.40;99.90;;;;;;5015296;28;20439;-69
2021/10/16 11:12:11;;;;;;;1999.90;999.90;;;15.50;99.90;;;;;;5015279;28;20416;-69
2021/10/16 11:14:39;;;;;;;1999.90;999.90;;;15.50;99.90;;;;;;5015484;28;20405;-68
2021/10/16 11:17:13;;;;;;;1999.90;999.90;;;15.70;99.90;;;;;;5015141;28;20454;-69
2021/10/16 11:20:06;;;;;;;1999.90;999.90;;;16.10;99.90;;;;;;5015536;28;20416;-69
2021/10/16 11:22:42;;;;;;;1999.90;999.90;;;16.90;99.90;;;;;;5014089;28;20817;-69
2021/10/16 11:25:08;;;;;;;1999.90;999.90;;;17.90;99.90;;;;;;5015621;28;20439;-69
2021/10/16 11:27:33;;;;;;;1999.90;999.90;;;18.80;99.90;;;;;;5015615;28;20476;-68
2021/10/16 11:30:02;;;;;;;1999.90;999.90;;;19.60;99.90;;;;;;5015256;28;20203;-70
2021/10/16 11:32:31;;;;;;;1999.90;999.90;;;20.50;99.90;;;;;;5014059;28;20198;-69
2021/10/16 11:34:59;;;;;;;1999.90;999.90;;;21.30;99.90;;;;;;5015584;28;20525;-68
2021/10/16 11:37:47;;;;;;;1999.90;999.90;;;22.00;99.90;;;;;;5015015;28;20439;-68
2021/10/16 11:40:18;;;;;;;1999.90;999.90;;;22.60;99.90;;;;;;5015563;28;20370;-69
2021/10/16 11:42:47;;;;;;;1999.90;999.90;;;23.10;99.90;;;;;;5014527;28;20447;-70
2021/10/16 11:45:18;;;;;;;1999.90;999.90;;;23.70;96.00;;;;;;5015317;28;21188;-69
2021/10/16 11:47:48;;;;;;;1999.90;999.90;;;24.10;95.80;;;;;;5015093;28;20363;-70
2021/10/16 11:50:21;;;;;;;1999.90;999.90;;;24.60;91.70;;;;;;5014617;28;20455;-69
2021/10/16 11:52:48;;;;;;;1999.90;999.90;;;25.10;79.70;;;;;;5014708;28;20481;-69
2021/10/16 11:55:22;;;;;;;1999.90;999.90;;;25.40;71.70;;;;;;5014512;28;20379;-69
2021/10/16 11:57:49;;;;;;;1999.90;999.90;;;25.60;73.30;;;;;;5014896;28;20389;-69
2021/10/16 12:00:24;;;;;;;1999.90;999.90;;;25.70;67.80;;;;;;5014165;28;20386;-69
2021/10/16 12:02:50;;;;;;;1999.90;999.90;;;26.00;68.80;;;;;;5014215;28;20402;-68
2021/10/16 12:05:19;;;;;;;1999.90;999.90;;;26.00;59.50;;;;;;5014763;28;20392;-69
2021/10/16 12:07:48;;;;;;;1999.90;999.90;;;25.50;57.60;;;;;;5014667;28;20507;-69